createdAt,value
2019-03-05T00:04:19.103Z,85.80
2019-03-05T00:09:25.574Z,85.90
2019-03-05T00:14:31.636Z,86.00
2019-03-05T00:19:37.724Z,85.90
2019-03-05T00:25:21.573Z,85.60
2019-03-05T00:30:59.970Z,85.30
2019-03-05T00:36:50.929Z,84.90
2019-03-05T00:42:53.687Z,85.10
2019-03-05T00:48:47.497Z,85.00
2019-03-05T00:55:09.162Z,84.90
2019-03-05T01:00:37.937Z,85.10
2019-03-05T01:06:24.365Z,84.70
2019-03-05T01:11:30.457Z,84.80
2019-03-05T01:16:36.734Z,84.60
2019-03-05T01:21:42.824Z,84.70
2019-03-05T01:26:48.923Z,84.80
2019-03-05T01:32:09.455Z,85.60
2019-03-05T01:37:15.559Z,86.20
2019-03-05T01:42:21.633Z,86.10
2019-03-05T01:47:27.787Z,85.00
2019-03-05T01:52:33.864Z,85.20
2019-03-05T01:57:40.954Z,84.70
2019-03-05T02:02:47.059Z,84.70
2019-03-05T02:07:53.455Z,84.60
2019-03-05T02:12:59.581Z,85.70
2019-03-05T02:18:05.664Z,85.10
2019-03-05T02:23:24.599Z,85.50
2019-03-05T02:28:59.065Z,85.60
2019-03-05T02:34:28.183Z,85.70
2019-03-05T02:40:47.143Z,86.00
2019-03-05T02:46:48.131Z,86.50
2019-03-05T02:52:12.179Z,86.40
2019-03-05T02:57:16.109Z,87.10
2019-03-05T03:02:38.800Z,85.70
2019-03-05T03:07:44.895Z,85.40
2019-03-05T03:12:51.001Z,85.30
2019-03-05T03:17:57.110Z,85.30
2019-03-05T03:23:03.177Z,84.40
2019-03-05T03:28:09.245Z,84.60
2019-03-05T03:33:15.339Z,84.80
2019-03-05T03:38:21.441Z,84.30
2019-03-05T03:43:27.558Z,84.20
2019-03-05T03:48:33.634Z,84.10
2019-03-05T03:53:39.709Z,84.30
2019-03-05T03:58:45.809Z,83.90
2019-03-05T04:03:51.889Z,83.80
2019-03-05T04:08:58.044Z,83.80
2019-03-05T04:14:04.206Z,84.00
2019-03-05T04:19:13.583Z,84.10
2019-03-05T04:24:19.786Z,83.20
2019-03-05T04:29:25.875Z,83.80
2019-03-05T04:34:31.982Z,85.00
2019-03-05T04:39:38.064Z,83.20
2019-03-05T04:44:55.104Z,83.10
2019-03-05T04:50:15.516Z,83.10
2019-03-05T04:55:21.646Z,82.70
2019-03-05T05:00:27.742Z,83.20
2019-03-05T05:05:33.803Z,82.80
2019-03-05T05:10:39.886Z,82.60
2019-03-05T05:15:45.990Z,82.30
2019-03-05T05:20:52.059Z,82.90
2019-03-05T05:25:58.136Z,83.70
2019-03-05T05:31:04.209Z,83.40
2019-03-05T05:36:10.278Z,83.40
2019-03-05T05:41:16.416Z,82.80
2019-03-05T05:46:22.519Z,83.30
2019-03-05T05:51:28.850Z,82.70
2019-03-05T05:56:34.974Z,82.90
2019-03-05T06:01:41.061Z,82.60
2019-03-05T06:06:47.156Z,82.20
2019-03-05T06:11:53.251Z,82.30
2019-03-05T06:16:59.329Z,82.20
2019-03-05T06:22:05.419Z,82.10
2019-03-05T06:27:11.902Z,81.70
2019-03-05T06:32:17.981Z,82.60
2019-03-05T06:37:24.068Z,82.50
2019-03-05T06:42:30.162Z,83.70
2019-03-05T06:47:36.256Z,85.80
2019-03-05T06:52:42.351Z,86.80
2019-03-05T06:57:48.454Z,87.20
2019-03-05T07:02:54.694Z,87.60
2019-03-05T07:08:00.790Z,86.90
2019-03-05T07:13:17.834Z,87.50
2019-03-05T07:18:29.376Z,87.70
2019-03-05T07:24:47.398Z,87.60
2019-03-05T07:29:54.185Z,85.30
2019-03-05T07:35:00.361Z,83.90
2019-03-05T07:40:07.873Z,85.10
2019-03-05T07:45:13.978Z,83.70
2019-03-05T07:50:20.129Z,83.20
2019-03-05T07:55:27.204Z,83.00
2019-03-05T08:00:33.286Z,82.50
2019-03-05T08:05:39.421Z,81.80
2019-03-05T08:10:45.530Z,81.30
2019-03-05T08:16:26.312Z,81.20
2019-03-05T08:21:32.397Z,79.70
2019-03-05T08:26:38.465Z,80.70
2019-03-05T08:31:44.543Z,80.10
2019-03-05T08:36:50.639Z,78.40
2019-03-05T08:41:56.733Z,78.00
2019-03-05T08:47:02.896Z,77.00
2019-03-05T08:52:08.975Z,78.60
2019-03-05T08:57:15.079Z,78.00
2019-03-05T09:02:21.158Z,79.40
2019-03-05T09:07:27.243Z,78.10
2019-03-05T09:12:33.325Z,78.00
2019-03-05T09:17:39.411Z,76.30
2019-03-05T09:22:45.509Z,77.40
2019-03-05T09:27:51.603Z,76.60
2019-03-05T09:32:57.691Z,75.80
2019-03-05T09:38:03.781Z,72.90
2019-03-05T09:43:09.861Z,72.10
2019-03-05T09:48:15.954Z,70.00
2019-03-05T09:53:22.050Z,74.70
2019-03-05T09:58:28.235Z,70.00
2019-03-05T10:03:34.311Z,70.30
2019-03-05T10:08:40.476Z,68.50
2019-03-05T10:13:46.555Z,67.30
2019-03-05T10:18:52.653Z,67.90
2019-03-05T10:24:09.746Z,66.90
2019-03-05T10:29:07.430Z,65.70
2019-03-05T10:34:13.531Z,65.60
2019-03-05T10:39:31.023Z,65.80
2019-03-05T10:44:37.281Z,64.60
2019-03-05T10:49:43.353Z,67.00
2019-03-05T10:54:49.489Z,68.50
2019-03-05T10:59:57.495Z,67.90
2019-03-05T11:05:03.586Z,68.30
2019-03-05T11:10:11.419Z,68.70
2019-03-05T11:15:23.857Z,67.80
2019-03-05T11:20:29.958Z,67.80
2019-03-05T11:25:36.228Z,67.70
2019-03-05T11:30:42.289Z,66.50
2019-03-05T11:35:48.408Z,73.70
2019-03-05T11:40:54.505Z,79.30
2019-03-05T11:46:01.565Z,81.90
2019-03-05T11:51:07.646Z,82.00
2019-03-05T11:56:13.815Z,82.80
2019-03-05T12:01:23.373Z,85.90
2019-03-05T12:06:29.461Z,86.60
2019-03-05T12:11:35.546Z,88.80
2019-03-05T12:16:41.860Z,90.80
2019-03-05T12:21:48.096Z,92.90
2019-03-05T12:26:54.203Z,92.60
2019-03-05T12:32:00.281Z,93.70
2019-03-05T12:37:06.373Z,92.20
2019-03-05T12:42:12.442Z,93.70
2019-03-05T12:47:18.521Z,91.60
2019-03-05T12:52:24.607Z,91.00
2019-03-05T12:57:31.802Z,91.60
2019-03-05T13:02:37.899Z,92.90
2019-03-05T13:07:43.988Z,92.90
2019-03-05T13:12:50.079Z,93.40
2019-03-05T13:17:56.187Z,93.20
2019-03-05T13:23:08.697Z,92.30
2019-03-05T13:28:10.053Z,91.20
2019-03-05T13:33:16.128Z,92.10
2019-03-05T13:38:22.222Z,89.90
2019-03-05T13:43:28.425Z,89.40
2019-03-05T13:49:25.583Z,88.60
2019-03-05T13:55:14.967Z,88.70
2019-03-05T14:00:21.073Z,84.90
2019-03-05T14:06:12.555Z,84.80
2019-03-05T14:11:18.628Z,85.90
2019-03-05T14:16:25.193Z,89.30
2019-03-05T14:21:31.343Z,88.90
2019-03-05T14:26:37.425Z,90.70
2019-03-05T14:31:43.553Z,93.60
2019-03-05T14:36:49.659Z,94.40
2019-03-05T14:41:55.749Z,95.20
2019-03-05T14:47:03.458Z,95.50
2019-03-05T14:52:09.588Z,95.90
2019-03-05T14:57:15.711Z,94.70
2019-03-05T15:02:21.765Z,95.60
2019-03-05T15:07:27.920Z,96.10
2019-03-05T15:12:34.175Z,96.40
2019-03-05T15:17:40.231Z,95.70
2019-03-05T15:22:46.329Z,93.40
2019-03-05T15:27:52.410Z,92.90
2019-03-05T15:32:58.633Z,89.50
2019-03-05T15:38:05.084Z,90.70
2019-03-05T15:43:11.434Z,89.30
2019-03-05T15:48:17.519Z,89.60
2019-03-05T15:53:27.370Z,88.30
2019-03-05T15:58:31.749Z,89.80
2019-03-05T16:03:37.878Z,88.10
2019-03-05T16:08:43.959Z,91.60
2019-03-05T16:13:52.295Z,91.30
2019-03-05T16:18:58.003Z,91.10
2019-03-05T16:24:04.157Z,91.20
2019-03-05T16:29:10.466Z,92.50
2019-03-05T16:34:32.963Z,93.40
2019-03-05T16:40:00.902Z,93.90
2019-03-05T16:45:17.878Z,95.20
2019-03-05T16:50:42.949Z,94.90
2019-03-05T16:55:59.526Z,95.60
2019-03-05T17:01:18.491Z,95.90
2019-03-05T17:06:56.547Z,96.40
2019-03-05T17:12:02.805Z,95.70
2019-03-05T17:17:09.052Z,95.40
2019-03-05T17:22:15.237Z,95.50
2019-03-05T17:27:21.404Z,96.50
2019-03-05T17:32:27.484Z,96.80
2019-03-05T17:37:35.143Z,96.70
2019-03-05T17:42:42.614Z,96.60
2019-03-05T17:47:48.783Z,96.40
2019-03-05T17:52:54.928Z,96.50
2019-03-05T17:58:01.194Z,95.70
2019-03-05T18:03:07.519Z,95.40
2019-03-05T18:08:13.755Z,96.00
2019-03-05T18:13:20.132Z,96.50
2019-03-05T18:18:26.327Z,95.50
2019-03-05T18:23:33.276Z,94.70
2019-03-05T18:28:39.704Z,94.70
2019-03-05T18:33:46.130Z,95.10
2019-03-05T18:38:52.242Z,95.30
2019-03-05T18:43:58.452Z,94.90
2019-03-05T18:49:04.853Z,94.80
2019-03-05T18:54:11.018Z,95.10
2019-03-05T18:59:17.467Z,94.80
2019-03-05T19:04:23.552Z,95.00
2019-03-05T19:09:29.715Z,95.00
2019-03-05T19:14:35.966Z,95.30
2019-03-05T19:19:42.091Z,95.20
2019-03-05T19:24:48.278Z,96.00
2019-03-05T19:29:54.435Z,95.90
2019-03-05T19:35:00.601Z,96.10
2019-03-05T19:40:08.463Z,96.20
2019-03-05T19:45:15.750Z,96.20
2019-03-05T19:50:22.438Z,96.40
2019-03-05T19:55:29.179Z,96.40
2019-03-05T20:00:39.074Z,95.90
2019-03-05T20:05:45.778Z,96.10
2019-03-05T20:10:53.467Z,96.10
2019-03-05T20:16:00.189Z,96.10
2019-03-05T20:21:06.615Z,96.30
2019-03-05T20:26:12.968Z,96.00
2019-03-05T20:31:21.468Z,95.70
2019-03-05T20:36:28.035Z,95.50
2019-03-05T20:41:34.908Z,96.00
2019-03-05T20:46:41.485Z,96.10
2019-03-05T20:51:48.284Z,96.30
2019-03-05T20:56:54.704Z,96.80
2019-03-05T21:02:00.808Z,96.40
2019-03-05T21:07:06.882Z,95.90
2019-03-05T21:12:12.967Z,96.20
2019-03-05T21:17:19.059Z,96.40
2019-03-05T21:22:25.141Z,96.60
2019-03-05T21:27:31.208Z,97.00
2019-03-05T21:32:37.575Z,97.10
2019-03-05T21:37:43.927Z,96.90
2019-03-05T21:42:50.192Z,97.30
2019-03-05T21:47:56.290Z,97.50
2019-03-05T21:53:02.377Z,97.50
2019-03-05T21:58:08.487Z,97.30
2019-03-05T22:03:14.643Z,97.30
2019-03-05T22:08:20.742Z,97.30
2019-03-05T22:13:26.882Z,97.60
2019-03-05T22:18:33.039Z,97.80
2019-03-05T22:23:39.109Z,98.10
2019-03-05T22:28:45.225Z,98.10
2019-03-05T22:33:51.305Z,97.90
2019-03-05T22:38:57.419Z,98.10
2019-03-05T22:44:03.515Z,97.80
2019-03-05T22:49:09.646Z,98.10
2019-03-05T22:54:15.758Z,98.00
2019-03-05T22:59:22.943Z,98.00
2019-03-05T23:04:34.002Z,98.20
2019-03-05T23:09:40.161Z,97.60
2019-03-05T23:14:46.414Z,97.60
2019-03-05T23:19:52.500Z,97.60
2019-03-05T23:24:58.634Z,98.30
2019-03-05T23:30:06.009Z,98.30
2019-03-05T23:35:12.401Z,98.20
2019-03-05T23:40:18.552Z,98.70
2019-03-05T23:45:24.647Z,98.50
2019-03-05T23:50:30.778Z,99.10
2019-03-05T23:55:36.850Z,99.00
